Aviation Digital Data Service (ADDS)

Output produced by METARs form (2128 UTC 08 August 2020)
found at http://www.aviationweather.gov/metar/data/
 
RJTT 082100Z VRB02KT 9999 FEW020 BKN/// 26/23 Q1009 NOSIG RMK 1CU020 A2980
RJTT 082030Z 33002KT 9999 FEW020 BKN/// 25/22 Q1009 NOSIG
TAF RJTT 081705Z 0818/1000 30004KT 9999 FEW020 
     BECMG 0821/0823 19012KT
       
RJAA 082117Z VRB01KT 0800 R16R/0900V1200N R16L/1200VP2000N FG FEW001 BKN002 BKN003 23/23 Q1009 RMK 1ST001 5ST002 7ST003 A2981
RJAA 082115Z VRB01KT 0800 R16R/0900V1200N R16L/1000VP2000U FG FEW001 BKN002 BKN003 23/23 Q1009 RMK 1ST001 5ST002 7ST003 A2981
RJAA 082110Z VRB01KT 0800 R16R/0900V1200U R16L/0700VP2000U FG FEW001 BKN002 23/23 Q1009 RMK 1ST001 7ST002 A2981
RJAA 082107Z VRB01KT 0600 R16R/0800V1200U R16L/0550V1200U FG FEW001 BKN002 23/23 Q1009 RMK 1ST001 7ST002 A2981
RJAA 082106Z VRB01KT 0600 R16R/0800V1100U R16L/0550V1200U FG FEW001 BKN002 23/23 Q1009 RMK 1ST001 7ST002 A2981
RJAA 082105Z VRB01KT 0600 R16R/0800V1100U R16L/0500V1200U FG FEW001 BKN002 23/23 Q1009 RMK 1ST001 7ST002 A2981
RJAA 082100Z VRB01KT 0400 R16R/0550V0900U R16L/0450V1000U FG FEW001 BKN002 23/23 Q1009 BECMG 3000 BR FEW002 BKN007
RJAA 082041Z 32003KT 0500 R16R/0325V0550N R16L/0250V0325N FG FEW001 BKN002 23/23 Q1009 RMK 1ST001 7ST002 A2982
RJAA 082034Z 31004KT 0400 R16R/0300V0500N R16L/0250N FG FEW001 BKN002 23/23 Q1009 RMK 1ST001 7ST002 A2981
RJAA 082030Z 31004KT 0500 R16R/0300V0800D R16L/0250N FG FEW001 BKN002 23/23 Q1009 NOSIG
TAF AMD RJAA 082028Z 0820/1000 32004KT 2000 BR FEW002 BKN007 
     TEMPO 0820/0822 0700 FG FEW001 BKN002 
     BECMG 0822/0900 23012KT 9999 NSW FEW030
       
RJGG 082100Z 15003KT 9000 FEW020 BKN/// 27/25 Q1010 NOSIG
RJGG 082030Z 12001KT 9000 FEW020 BKN/// 27/24 Q1010 NOSIG
TAF RJGG 081705Z 0818/1000 20006KT 9999 FEW020
       
RJBB 082100Z 20008KT 9999 FEW030 SCT070 BKN/// 28/25 Q1010 NOSIG
RJBB 082030Z AUTO 20011KT 9999 NSC 28/25 Q1010 NOSIG
TAF RJBB 081706Z 0818/1000 20016KT 9999 FEW030
       
RJOO 082100Z 25005KT 210V290 9999 FEW020 BKN/// 28/25 Q1010 RMK 1CU020 A2985
TAF RJOO 081707Z 0818/1000 24006KT 9000 FEW015 BKN035 
     BECMG 0822/0900 22005KT
       
RJFF 082100Z 15012KT 9999 FEW015 BKN/// 27/24 Q1008 NOSIG RMK 1CU015 A2978
RJFF 082030Z AUTO 15013KT 9999 FEW034 SCT044 27/24 Q1008 NOSIG RMK A2978
TAF RJFF 081706Z 0818/1000 15011KT 9999 FEW025 SCT040 
     TEMPO 0906/0909 4000 -TSRA BR FEW020 FEW025CB BKN040
       
ROAH 082116Z 14018KT 6000 SHRA FEW005 SCT010 BKN045 25/24 Q1006 RMK 1ST005 3CU010 5SC045 A2971
ROAH 082111Z 14020G30KT 4000 SHRA FEW005 SCT010 FEW025CB BKN040 25/24 Q1006 RMK 1ST005 3CU010 1CB025 5SC040 A2971 CB 20KM NW-N MOV NW
ROAH 082105Z 14022KT 4000 SHRA FEW005 SCT010 FEW025CB BKN040 25/24 Q1006 RMK 1ST005 3CU010 1CB025 5SC040 A2971 CB 10KM NW-N MOV NW
ROAH 082100Z 14024KT 3500 R18L/1500VP2000U R18R/1000VP2000U +SHRA FEW005 SCT010 BKN015 FEW025CB 25/24 Q1006 RMK 1ST005 3CU010 5CU015 2CB025 A2971 CB 5KM NW-N MOV NW
ROAH 082047Z 14026KT 1500 R18L/P2000N R18R/P2000N +SHRA FEW008 SCT010 BKN015 SCT025CB 27/25 Q1005 RMK 1ST008 3CU010 5CU015 3CB025 A2970 CB OHD MOV NW RI++
ROAH 082043Z 14015KT 3500 +SHRA FEW008 SCT010 FEW025CB BKN050 27/26 Q1006 RMK 1ST008 3CU010 1CB025 5SC050 A2971 CB 5KM SE-S MOV NW
ROAH 082038Z 13016KT 9999 SHRA FEW008 SCT010 FEW025CB BKN080 27/26 Q1005 RMK 1ST008 3CU010 1CB025 5AC080 A2970 CB 10KM SE-S MOV NW
ROAH 082030Z 14016KT 9999 -SHRA FEW008 SCT010 FEW025CB BKN100 27/25 Q1005 RMK 1ST008 3CU010 1CB025 5AC100 A2970 CB 20KM SE-S MOV NW
TAF ROAH 081705Z 0818/1000 13018KT 9999 FEW010 BKN020 
     TEMPO 0818/0900 13020G32KT 4000 SHRA FEW008 BKN015 FEW020CB 
     TEMPO 0900/0903 13028G46KT 4000 SHRA FEW008 BKN015 FEW020CB 
     BECMG 0902/0904 15028KT 
     TEMPO 0903/0912 15034G50KT 2000 +SHRA FEW005 BKN010 FEW020CB 
     TEMPO 0912/0915 19030G42KT 4000 SHRA FEW008 BKN015 FEW020CB
       
RJCC 082100Z VRB01KT 9999 FEW010 BKN018 18/17 Q1009 RMK 1ST010 7ST018 A2982
RJCC 082030Z 17004KT 9999 -SHRA FEW010 BKN018 18/17 Q1009 RMK 1ST010 7ST018 A2981
TAF RJCC 081705Z 0818/1000 16010KT 9999 FEW010 BKN020 
     TEMPO 0818/0821 FEW005 BKN008 
     TEMPO 0918/0921 FEW005 BKN008 
     TEMPO 0921/1000 3000 SHRA BR FEW003 BKN005
       
TAF RJEC 081708Z 0818/1000 18007KT 9999 FEW015 SCT030
       
TAF RJCK 081709Z 0818/1000 01003KT 9999 FEW005 BKN015 
     TEMPO 0818/0900 3000 BR FEW003 BKN005 
     BECMG 0823/0901 18010KT 
     BECMG 0909/0912 03005KT FEW003 BKN006 
     TEMPO 0912/0921 4000 BR FEW002 BKN004
       
TAF RJSA 081705Z 0818/1000 02004KT 1500 -SHRA BR FEW001 BKN003 BKN005 
     TEMPO 0818/0822 0700 SHRA FG 
     BECMG 0822/0900 24010KT 8000 -SHRA FEW010 BKN020 BKN030
       
TAF RJSK 081705Z 0818/1000 13007KT 6000 -SHRA FEW008 BKN015 BKN020 
     TEMPO 0818/0900 1500 +TSRA BR FEW001 BKN003 BKN005 FEW020CB 
     BECMG 0822/0900 26013KT 
     TEMPO 0906/0912 3000 -SHRA BR FEW005 BKN008 BKN015 
     BECMG 0912/0915 13004KT
       
RJSN 082110Z 16008KT 5000 SHRA BR FEW030 BKN050 BKN070 24/24 Q1007 RMK 2CU030 5CU050 7AC070 A2976
TAF RJSN 081705Z 0818/1000 16006KT 6000 -SHRA FEW008 BKN015 
     BECMG 0818/0820 24016KT 
     TEMPO 0818/0821 4000 -SHRA BR 
     TEMPO 0821/0901 3000 SHRA BR FEW005 BKN008 
     TEMPO 0901/0904 24018G28KT 4000 -SHRA BR FEW005 BKN008 
     BECMG 0909/0912 16006KT
       
TAF RJSF 081709Z 0818/1000 16004KT 8000 -SHRA FEW008 BKN015 BKN020 
     TEMPO 0818/0900 3000 -SHRA BR FEW005 BKN008 BKN015
       
RJSS 082100Z 15004KT 7000 -SHRA FEW003 SCT005 BKN012 22/21 Q1009
RJSS 082030Z 16004KT 7000 -SHRA FEW003 BKN005 BKN007 22/21 Q1009 RMK 1ST003 5ST005 7ST007 A2979
TAF AMD RJSS 082046Z 0820/1000 16010KT 8000 -SHRA FEW010 BKN020 BKN030 
     TEMPO 0820/0900 4000 SHRA BR FEW003 BKN005 BKN015 
     TEMPO 0900/0903 4000 SHRA BR 
     BECMG 0901/0903 23008KT
       
RJOK 082110Z 08004KT 7000 FEW004 BKN/// 27/26 Q1011 RMK 1ST004 A2986
TAF RJOK 081708Z 0818/1000 21006KT 9999 FEW010 BKN020 
     TEMPO 0905/0912 4000 SHRA BR 
     TEMPO 0912/0918 3000 TSRA BR FEW003 BKN008 BKN015 FEW020CB
       
RJOM 082110Z 25004KT 200V310 9999 FEW030 BKN/// 27/23 Q1010 RMK 1CU030 A2982
TAF RJOM 081707Z 0818/1000 16006KT 9999 FEW030 
     BECMG 0823/0901 23006KT 
     BECMG 0906/0909 12005KT
       
TAF RJFO 081709Z 0818/1000 15006KT 8000 FEW020
       
RJFU 082110Z 14009KT 9999 FEW010 SCT025 BKN/// 27/25 Q1008 RMK 1CU010 3CU025 A2979
TAF RJFU 081705Z 0818/1000 15010KT 9999 FEW010 SCT020 BKN030
       
RJFT 082110Z 04004KT 9999 FEW030 24/23 Q1010 RMK 1CU030 A2984
TAF RJFT 081706Z 0818/1000 06005KT 9999 FEW030 
     BECMG 0822/0900 22008KT 
     BECMG 0909/0912 06005KT 
     BECMG 0921/1000 18010KT
       
RJFK 082117Z 12002KT 9999 VCVA FEW025 25/24 Q1011 RMK 2CU025 A2988 ASH FALL VOLCANIC ASH CLOUD S
RJFK 082100Z 12002KT 9999 FEW025 24/24 Q1011 RMK 2CU025 A2987 VOLCANIC ASH CLOUD S
TAF RJFK 081706Z 0818/1000 03004KT 8000 -SHRA FEW005 SCT008 BKN015 
     TEMPO 0821/0903 4000 -SHRA BR 
     BECMG 0823/0901 18011KT 
     TEMPO 0921/1000 4000 -SHRA BR
       
RJFM 082110Z 18003KT 9999 FEW015 26/24 Q1010 RMK 1CU015 A2983
TAF RJFM 081708Z 0818/1000 22004KT 9999 FEW015 SCT030 
     BECMG 0901/0903 15008KT 
     TEMPO 0906/0912 3000 SHRA BR 
     TEMPO 0912/0921 4000 -SHRA BR 
     TEMPO 0921/1000 3000 SHRA BR